Fire Weather Observation
Issued by NWS Grand Junction, CO

Home | Current Version | Previous Version | Graphics & Text | Print | Product List | Glossary On
Versions: 1 2 3 4 5 6 7 8 9 10 11 12 13 14 15 16 17 18 19 20 21 22 23 24 25 26 27 28 29 30 31 32 33 34 35 36 37 38 39 40 41 42 43 44 45 46 47 48 49 50
988
SHUS65 KGJT 222020
FWOGJT

DAILY FIRE WEATHER OBSERVATION
NATIONAL WEATHER SERVICE GRAND JUNCTION CO
220 PM MDT FRI SEP 22 2017

STATE OF THE WEATHER (W)               2
DRY BULB TEMPERATURE                   75   DEGREES FAHRENHEIT
RELATIVE HUMIDITY (RH)                 18   PERCENT
LIGHTNING ACTIVITY LEVEL
  (LAL - MIDNIGHT TO 2 PM)             2
WIND DIRECTION                         225  DEGREES (C IF CALM)
WIND SPEED                             20   MPH
MAX TEMP (2 PM - 2 PM)                 85   DEGREES FAHRENHEIT
MIN TEMP (2 PM - 2 PM)                 63   DEGREES FAHRENHEIT
MAX RH (2 PM - 2 PM)                   30   PERCENT
MIN RH (2 PM - 2 PM)                   9    PERCENT
PCPN DURATION                          0.0  HOURS
PCPN AMT (2 PM - 2 PM)                 0.0  INCHES
LAL (2 PM - 2 PM)                      2

$$

METAR KGJT 221953Z 22017G25KT 10SM SCT110 24/M02 A2975 RMK AO2
      PK WND 20032/1902 SLP001 T02391022



USA.gov is the U.S. government's official web portal to all federal, state and local government web resources and services.